Time,TemperatureF,DewpointF,PressureIn,WindDirection,WindDirectionDegrees,WindSpeedMPH,WindSpeedGustMPH,Humidity,HourlyPrecipIn,Conditions,Clouds,dailyrainin,SolarRadiationWatts/m^2,SoftwareType,DateUTC
2013-03-08 00:02:00,41.1,39.2,30.11,East,92,0.0,2.0,93,0.00,,,0.00,0,Wunderground v.1.15,2013-03-08 08:02:00,
2013-03-08 00:07:00,41.1,39.2,30.11,East,92,1.0,2.0,93,0.00,,,0.00,0,Wunderground v.1.15,2013-03-08 08:07:00,
2013-03-08 00:12:00,41.1,39.2,30.11,East,92,2.0,2.0,93,0.00,,,0.00,0,Wunderground v.1.15,2013-03-08 08:12:00,
2013-03-08 00:17:00,41.1,39.2,30.11,East,94,0.0,3.0,93,0.00,,,0.00,0,Wunderground v.1.15,2013-03-08 08:17:00,
2013-03-08 00:22:00,41.0,39.1,30.11,East,93,0.0,1.0,93,0.00,,,0.00,0,Wunderground v.1.15,2013-03-08 08:22:00,
2013-03-08 00:27:00,40.9,39.0,30.11,East,93,0.0,2.0,93,0.00,,,0.00,0,Wunderground v.1.15,2013-03-08 08:27:00,
2013-03-08 00:32:00,40.9,39.0,30.11,East,93,1.0,1.0,93,0.00,,,0.00,0,Wunderground v.1.15,2013-03-08 08:32:00,
2013-03-08 00:37:00,40.7,38.8,30.11,East,93,1.0,2.0,93,0.00,,,0.00,0,Wunderground v.1.15,2013-03-08 08:37:00,
2013-03-08 00:42:00,40.6,38.7,30.11,East,93,0.0,1.0,93,0.00,,,0.00,0,Wunderground v.1.15,2013-03-08 08:42:00,
2013-03-08 00:47:00,40.6,38.7,30.11,East,93,0.0,1.0,93,0.00,,,0.00,0,Wunderground v.1.15,2013-03-08 08:47:00,
2013-03-08 00:52:00,40.4,38.5,30.11,East,93,0.0,1.0,93,0.00,,,0.00,0,Wunderground v.1.15,2013-03-08 08:52:00,
2013-03-08 00:57:00,40.2,38.1,30.11,East,94,0.0,1.0,92,0.00,,,0.00,0,Wunderground v.1.15,2013-03-08 08:57:00,
2013-03-08 01:02:00,40.0,37.9,30.11,East,93,0.0,1.0,92,0.00,,,0.00,0,Wunderground v.1.15,2013-03-08 09:02:00,
2013-03-08 01:07:00,39.9,37.8,30.11,East,93,0.0,1.0,92,0.00,,,0.00,0,Wunderground v.1.15,2013-03-08 09:07:00,
2013-03-08 01:12:00,39.8,37.7,30.11,East,93,0.0,1.0,92,0.00,,,0.00,0,Wunderground v.1.15,2013-03-08 09:12:00,
2013-03-08 01:17:00,39.7,37.8,30.11,East,94,0.0,1.0,93,0.00,,,0.00,0,Wunderground v.1.15,2013-03-08 09:17:00,
2013-03-08 01:22:00,39.6,37.5,30.11,East,94,0.0,0.0,92,0.00,,,0.00,0,Wunderground v.1.15,2013-03-08 09:22:00,
2013-03-08 01:27:00,39.5,37.4,30.11,East,93,0.0,0.0,92,0.00,,,0.00,0,Wunderground v.1.15,2013-03-08 09:27:00,
2013-03-08 01:32:00,39.3,37.2,30.11,East,93,0.0,0.0,92,0.00,,,0.00,0,Wunderground v.1.15,2013-03-08 09:32:00,
2013-03-08 01:37:00,39.1,37.0,30.11,East,93,0.0,0.0,92,0.00,,,0.00,0,Wunderground v.1.15,2013-03-08 09:37:00,
2013-03-08 01:42:00,38.9,36.8,30.11,East,94,0.0,2.0,92,0.00,,,0.00,0,Wunderground v.1.15,2013-03-08 09:42:00,
2013-03-08 01:47:00,38.9,37.0,30.11,ENE,58,3.0,4.0,93,0.00,,,0.00,0,Wunderground v.1.15,2013-03-08 09:47:00,
2013-03-08 01:52:00,39.0,37.1,30.11,NE,55,1.0,2.0,93,0.00,,,0.00,0,Wunderground v.1.15,2013-03-08 09:52:00,
2013-03-08 01:57:00,38.8,36.9,30.11,ENE,59,0.0,2.0,93,0.00,,,0.00,0,Wunderground v.1.15,2013-03-08 09:57:00,
2013-03-08 02:02:00,38.7,36.9,30.11,ENE,60,0.0,1.0,93,0.00,,,0.00,0,Wunderground v.1.15,2013-03-08 10:02:00,
2013-03-08 02:07:00,38.6,36.8,30.11,ENE,60,0.0,1.0,93,0.00,,,0.00,0,Wunderground v.1.15,2013-03-08 10:07:00,
2013-03-08 02:12:00,38.4,36.6,30.11,ENE,60,0.0,0.0,93,0.00,,,0.00,0,Wunderground v.1.15,2013-03-08 10:12:00,
2013-03-08 02:17:00,38.4,36.6,30.11,ENE,60,0.0,0.0,93,0.00,,,0.00,0,Wunderground v.1.15,2013-03-08 10:17:00,
2013-03-08 02:22:00,38.2,36.4,30.12,ENE,60,1.0,3.0,93,0.00,,,0.00,0,Wunderground v.1.15,2013-03-08 10:22:00,
2013-03-08 02:27:00,38.1,36.3,30.12,ENE,60,0.0,3.0,93,0.00,,,0.00,0,Wunderground v.1.15,2013-03-08 10:27:00,
2013-03-08 02:32:00,38.0,36.2,30.12,ENE,60,0.0,0.0,93,0.00,,,0.00,0,Wunderground v.1.15,2013-03-08 10:32:00,
2013-03-08 02:37:00,37.9,36.1,30.11,ENE,60,0.0,0.0,93,0.00,,,0.00,0,Wunderground v.1.15,2013-03-08 10:37:00,
2013-03-08 02:42:00,37.8,36.0,30.11,ENE,60,0.0,0.0,93,0.00,,,0.00,0,Wunderground v.1.15,2013-03-08 10:42:00,
2013-03-08 02:47:00,37.8,36.0,30.11,ENE,60,0.0,0.0,93,0.00,,,0.00,0,Wunderground v.1.15,2013-03-08 10:47:00,
2013-03-08 02:52:00,37.7,35.9,30.11,ENE,60,0.0,0.0,93,0.00,,,0.00,0,Wunderground v.1.15,2013-03-08 10:52:00,
2013-03-08 02:57:00,37.7,35.9,30.11,ENE,60,0.0,1.0,93,0.00,,,0.00,0,Wunderground v.1.15,2013-03-08 10:57:00,
2013-03-08 03:02:00,37.6,35.8,30.11,ENE,62,1.0,2.0,93,0.00,,,0.00,0,Wunderground v.1.15,2013-03-08 11:02:00,
2013-03-08 03:07:00,37.6,35.8,30.11,ENE,63,1.0,2.0,93,0.00,,,0.00,0,Wunderground v.1.15,2013-03-08 11:07:00,
2013-03-08 03:12:00,37.6,35.8,30.11,ENE,64,0.0,1.0,93,0.00,,,0.00,0,Wunderground v.1.15,2013-03-08 11:12:00,
2013-03-08 03:17:00,37.6,36.0,30.11,ENE,70,2.0,2.0,94,0.00,,,0.00,0,Wunderground v.1.15,2013-03-08 11:17:00,
2013-03-08 03:22:00,37.6,36.0,30.11,ENE,78,3.0,3.0,94,0.00,,,0.00,0,Wunderground v.1.15,2013-03-08 11:22:00,
2013-03-08 03:27:00,37.7,36.1,30.11,East,80,1.0,3.0,94,0.00,,,0.00,0,Wunderground v.1.15,2013-03-08 11:27:00,
2013-03-08 03:32:00,37.7,36.1,30.11,East,81,0.0,2.0,94,0.00,,,0.00,0,Wunderground v.1.15,2013-03-08 11:32:00,
2013-03-08 03:37:00,37.7,36.1,30.11,East,82,1.0,2.0,94,0.00,,,0.00,0,Wunderground v.1.15,2013-03-08 11:37:00,
2013-03-08 03:42:00,37.7,36.1,30.11,East,82,0.0,2.0,94,0.00,,,0.00,0,Wunderground v.1.15,2013-03-08 11:42:00,
2013-03-08 03:47:00,37.8,36.2,30.11,East,82,1.0,2.0,94,0.00,,,0.00,0,Wunderground v.1.15,2013-03-08 11:47:00,
2013-03-08 03:52:00,37.9,36.3,30.11,East,82,0.0,1.0,94,0.00,,,0.00,0,Wunderground v.1.15,2013-03-08 11:52:00,
2013-03-08 03:57:00,38.0,36.4,30.11,East,82,0.0,1.0,94,0.00,,,0.00,0,Wunderground v.1.15,2013-03-08 11:57:00,
2013-03-08 04:02:00,38.0,36.4,30.11,East,82,0.0,1.0,94,0.00,,,0.00,0,Wunderground v.1.15,2013-03-08 12:02:00,
2013-03-08 04:07:00,38.1,36.5,30.11,East,82,0.0,2.0,94,0.00,,,0.00,0,Wunderground v.1.15,2013-03-08 12:07:00,
2013-03-08 04:12:00,38.2,36.9,30.11,East,82,1.0,2.0,95,0.00,,,0.00,0,Wunderground v.1.15,2013-03-08 12:12:00,
2013-03-08 04:17:00,38.3,37.0,30.11,East,82,0.0,2.0,95,0.00,,,0.00,0,Wunderground v.1.15,2013-03-08 12:17:00,
2013-03-08 04:22:00,38.3,37.0,30.11,East,82,0.0,1.0,95,0.00,,,0.00,0,Wunderground v.1.15,2013-03-08 12:22:00,
2013-03-08 04:27:00,38.5,37.2,30.11,East,82,0.0,2.0,95,0.00,,,0.00,0,Wunderground v.1.15,2013-03-08 12:27:00,
2013-03-08 04:32:00,38.6,37.3,30.11,East,82,0.0,0.0,95,0.00,,,0.00,0,Wunderground v.1.15,2013-03-08 12:32:00,
2013-03-08 04:37:00,38.7,37.4,30.11,East,82,0.0,0.0,95,0.00,,,0.00,0,Wunderground v.1.15,2013-03-08 12:37:00,
2013-03-08 04:42:00,38.7,37.4,30.11,East,82,0.0,0.0,95,0.00,,,0.00,0,Wunderground v.1.15,2013-03-08 12:42:00,
2013-03-08 04:47:00,38.8,37.5,30.12,East,82,0.0,0.0,95,0.00,,,0.00,0,Wunderground v.1.15,2013-03-08 12:47:00,
2013-03-08 04:52:00,38.9,37.6,30.12,East,82,0.0,1.0,95,0.00,,,0.00,0,Wunderground v.1.15,2013-03-08 12:52:00,
2013-03-08 04:57:00,39.0,37.7,30.12,East,82,0.0,1.0,95,0.00,,,0.00,0,Wunderground v.1.15,2013-03-08 12:57:00,
2013-03-08 05:02:00,39.1,37.8,30.12,East,82,0.0,2.0,95,0.00,,,0.00,0,Wunderground v.1.15,2013-03-08 13:02:00,
2013-03-08 05:07:00,39.2,37.9,30.12,East,82,1.0,2.0,95,0.00,,,0.00,0,Wunderground v.1.15,2013-03-08 13:07:00,
2013-03-08 05:12:00,39.4,38.1,30.12,East,82,1.0,2.0,95,0.00,,,0.00,0,Wunderground v.1.15,2013-03-08 13:12:00,
2013-03-08 05:17:00,39.5,38.2,30.12,East,82,0.0,2.0,95,0.00,,,0.00,0,Wunderground v.1.15,2013-03-08 13:17:00,
2013-03-08 05:22:00,39.7,38.4,30.12,East,96,3.0,5.0,95,0.00,,,0.00,0,Wunderground v.1.15,2013-03-08 13:22:00,
2013-03-08 05:27:00,39.7,38.4,30.12,ESE,104,2.0,5.0,95,0.00,,,0.00,0,Wunderground v.1.15,2013-03-08 13:27:00,
2013-03-08 05:32:00,39.7,38.4,30.12,ESE,109,0.0,2.0,95,0.00,,,0.00,0,Wunderground v.1.15,2013-03-08 13:32:00,
2013-03-08 05:37:00,39.8,38.5,30.12,ESE,109,1.0,3.0,95,0.00,,,0.00,0,Wunderground v.1.15,2013-03-08 13:37:00,
2013-03-08 05:42:00,39.7,38.4,30.12,ESE,109,2.0,3.0,95,0.00,,,0.00,0,Wunderground v.1.15,2013-03-08 13:42:00,
2013-03-08 05:47:00,39.7,38.4,30.12,ESE,109,1.0,3.0,95,0.00,,,0.00,0,Wunderground v.1.15,2013-03-08 13:47:00,
2013-03-08 05:52:00,39.6,38.3,30.12,ESE,109,0.0,1.0,95,0.00,,,0.00,0,Wunderground v.1.15,2013-03-08 13:52:00,
2013-03-08 05:57:00,39.6,38.3,30.12,ESE,109,2.0,3.0,95,0.00,,,0.00,0,Wunderground v.1.15,2013-03-08 13:57:00,
2013-03-08 06:02:00,39.5,38.2,30.12,ESE,109,1.0,3.0,95,0.00,,,0.00,0,Wunderground v.1.15,2013-03-08 14:02:00,
2013-03-08 06:07:00,39.4,38.1,30.12,ESE,109,0.0,3.0,95,0.00,,,0.00,0,Wunderground v.1.15,2013-03-08 14:07:00,
2013-03-08 06:12:00,39.3,38.0,30.12,ESE,109,0.0,2.0,95,0.00,,,0.00,0,Wunderground v.1.15,2013-03-08 14:12:00,
2013-03-08 06:17:00,39.2,37.9,30.12,SSE,162,0.0,4.0,95,0.00,,,0.00,0,Wunderground v.1.15,2013-03-08 14:17:00,
2013-03-08 06:22:00,39.1,37.8,30.12,SSE,164,1.0,3.0,95,0.00,,,0.00,0,Wunderground v.1.15,2013-03-08 14:22:00,
2013-03-08 06:27:00,38.9,37.6,30.12,SSE,163,1.0,4.0,95,0.00,,,0.00,0,Wunderground v.1.15,2013-03-08 14:27:00,
2013-03-08 06:32:00,38.7,37.4,30.12,South,173,1.0,4.0,95,0.00,,,0.00,0,Wunderground v.1.15,2013-03-08 14:32:00,
2013-03-08 06:37:00,38.6,37.3,30.12,SE,130,1.0,4.0,95,0.00,,,0.00,0,Wunderground v.1.15,2013-03-08 14:37:00,
2013-03-08 06:42:00,38.4,37.1,30.13,South,175,2.0,2.0,95,0.00,,,0.00,0,Wunderground v.1.15,2013-03-08 14:42:00,
2013-03-08 06:47:00,38.1,36.8,30.13,South,169,1.0,5.0,95,0.00,,,0.00,9,Wunderground v.1.15,2013-03-08 14:47:00,
2013-03-08 06:52:00,37.8,36.5,30.13,South,173,3.0,5.0,95,0.00,,,0.00,11,Wunderground v.1.15,2013-03-08 14:52:00,
2013-03-08 06:57:00,37.6,36.3,30.13,SSE,168,2.0,5.0,95,0.00,,,0.00,21,Wunderground v.1.15,2013-03-08 14:57:00,
2013-03-08 07:02:00,37.4,36.1,30.13,SSE,156,3.0,4.0,95,0.00,,,0.00,40,Wunderground v.1.15,2013-03-08 15:02:00,
2013-03-08 07:07:00,37.2,35.9,30.13,SE,130,2.0,5.0,95,0.00,,,0.00,47,Wunderground v.1.15,2013-03-08 15:07:00,
2013-03-08 07:12:00,37.2,35.9,30.13,ESE,121,4.0,5.0,95,0.00,,,0.00,32,Wunderground v.1.15,2013-03-08 15:12:00,
2013-03-08 07:17:00,37.1,35.8,30.12,ESE,121,4.0,5.0,95,0.00,,,0.00,21,Wunderground v.1.15,2013-03-08 15:17:00,
2013-03-08 07:22:00,37.1,35.8,30.13,ESE,121,0.0,3.0,95,0.00,,,0.00,25,Wunderground v.1.15,2013-03-08 15:22:00,
2013-03-08 07:27:00,37.2,35.9,30.13,SE,128,1.0,3.0,95,0.00,,,0.00,21,Wunderground v.1.15,2013-03-08 15:27:00,
2013-03-08 07:32:00,37.2,35.9,30.13,SE,132,2.0,2.0,95,0.00,,,0.00,30,Wunderground v.1.15,2013-03-08 15:32:00,
2013-03-08 07:37:00,37.3,36.0,30.13,SE,134,0.0,2.0,95,0.00,,,0.00,37,Wunderground v.1.15,2013-03-08 15:37:00,
2013-03-08 07:42:00,37.4,36.1,30.13,SE,135,2.0,2.0,95,0.00,,,0.00,40,Wunderground v.1.15,2013-03-08 15:42:00,
2013-03-08 07:47:00,37.5,36.2,30.13,SE,130,1.0,4.0,95,0.00,,,0.00,46,Wunderground v.1.15,2013-03-08 15:47:00,
2013-03-08 07:52:00,37.5,36.2,30.14,SE,146,2.0,3.0,95,0.00,,,0.00,53,Wunderground v.1.15,2013-03-08 15:52:00,
2013-03-08 07:57:00,37.5,36.2,30.14,SSE,167,1.0,4.0,95,0.00,,,0.00,56,Wunderground v.1.15,2013-03-08 15:57:00,
2013-03-08 08:02:00,37.6,36.3,30.14,SSE,166,1.0,2.0,95,0.00,,,0.00,70,Wunderground v.1.15,2013-03-08 16:02:00,
2013-03-08 08:07:00,37.7,36.4,30.14,SSE,159,2.0,4.0,95,0.00,,,0.00,90,Wunderground v.1.15,2013-03-08 16:07:00,
2013-03-08 08:12:00,37.7,36.4,30.14,SE,131,4.0,4.0,95,0.00,,,0.00,130,Wunderground v.1.15,2013-03-08 16:12:00,
2013-03-08 08:17:00,37.8,36.2,30.14,ESE,120,0.0,4.0,94,0.00,,,0.00,172,Wunderground v.1.15,2013-03-08 16:17:00,
2013-03-08 08:22:00,38.4,37.1,30.14,ESE,120,0.0,2.0,95,0.00,,,0.00,279,Wunderground v.1.15,2013-03-08 16:22:00,
2013-03-08 08:27:00,39.7,38.1,30.14,SSE,153,1.0,4.0,94,0.00,,,0.00,174,Wunderground v.1.15,2013-03-08 16:27:00,
2013-03-08 08:32:00,40.2,38.3,30.14,SSE,160,2.0,3.0,93,0.00,,,0.00,243,Wunderground v.1.15,2013-03-08 16:32:00,
2013-03-08 08:37:00,39.7,37.0,30.14,ESE,115,3.0,5.0,90,0.00,,,0.00,278,Wunderground v.1.15,2013-03-08 16:37:00,
2013-03-08 08:42:00,39.9,37.2,30.14,SE,126,1.0,4.0,90,0.00,,,0.00,169,Wunderground v.1.15,2013-03-08 16:42:00,
2013-03-08 08:47:00,40.1,37.7,30.14,ESE,123,3.0,4.0,91,0.00,,,0.00,306,Wunderground v.1.15,2013-03-08 16:47:00,
2013-03-08 08:52:00,39.5,36.5,30.15,ESE,111,5.0,5.0,89,0.00,,,0.00,316,Wunderground v.1.15,2013-03-08 16:52:00,
2013-03-08 08:57:00,39.3,36.6,30.15,SE,124,7.0,8.0,90,0.00,,,0.00,322,Wunderground v.1.15,2013-03-08 16:57:00,
2013-03-08 09:02:00,39.3,36.9,30.15,East,101,3.0,5.0,91,0.00,,,0.00,327,Wunderground v.1.15,2013-03-08 17:02:00,
2013-03-08 09:07:00,39.8,36.8,30.15,ESE,111,3.0,6.0,89,0.00,,,0.00,193,Wunderground v.1.15,2013-03-08 17:07:00,
2013-03-08 09:12:00,39.8,36.8,30.15,ESE,112,2.0,4.0,89,0.00,,,0.00,404,Wunderground v.1.15,2013-03-08 17:12:00,
2013-03-08 09:17:00,40.8,36.9,30.15,ESE,117,2.0,7.0,86,0.00,,,0.00,343,Wunderground v.1.15,2013-03-08 17:17:00,
2013-03-08 09:22:00,41.2,37.6,30.14,SE,137,2.0,7.0,87,0.00,,,0.00,304,Wunderground v.1.15,2013-03-08 17:22:00,
2013-03-08 09:27:00,41.1,36.6,30.14,ESE,108,7.0,8.0,84,0.00,,,0.00,287,Wunderground v.1.15,2013-03-08 17:27:00,
2013-03-08 09:32:00,41.7,37.8,30.14,SE,126,3.0,4.0,86,0.00,,,0.00,287,Wunderground v.1.15,2013-03-08 17:32:00,
2013-03-08 09:37:00,42.4,37.6,30.14,South,182,4.0,5.0,83,0.00,,,0.00,243,Wunderground v.1.15,2013-03-08 17:37:00,
2013-03-08 09:42:00,42.5,38.0,30.14,SSW,202,2.0,4.0,84,0.00,,,0.00,262,Wunderground v.1.15,2013-03-08 17:42:00,
2013-03-08 09:47:00,42.5,37.7,30.15,WSW,247,3.0,4.0,83,0.00,,,0.00,278,Wunderground v.1.15,2013-03-08 17:47:00,
2013-03-08 09:52:00,42.4,38.2,30.15,SSW,209,3.0,5.0,85,0.00,,,0.00,429,Wunderground v.1.15,2013-03-08 17:52:00,
2013-03-08 09:57:00,42.4,37.9,30.15,SW,217,3.0,7.0,84,0.00,,,0.00,352,Wunderground v.1.15,2013-03-08 17:57:00,
2013-03-08 10:02:00,43.1,38.6,30.15,SSW,212,4.0,6.0,84,0.00,,,0.00,520,Wunderground v.1.15,2013-03-08 18:02:00,
2013-03-08 10:07:00,44.7,39.2,30.15,SW,230,1.0,7.0,81,0.00,,,0.00,524,Wunderground v.1.15,2013-03-08 18:07:00,
2013-03-08 10:12:00,44.6,38.8,30.14,SW,229,4.0,4.0,80,0.00,,,0.00,492,Wunderground v.1.15,2013-03-08 18:12:00,
2013-03-08 10:17:00,44.1,38.3,30.14,South,175,3.0,5.0,80,0.00,,,0.00,487,Wunderground v.1.15,2013-03-08 18:17:00,
2013-03-08 10:22:00,43.7,38.3,30.14,SSE,155,3.0,4.0,81,0.00,,,0.00,519,Wunderground v.1.15,2013-03-08 18:22:00,
2013-03-08 10:27:00,43.7,37.9,30.14,SSE,155,1.0,4.0,80,0.00,,,0.00,503,Wunderground v.1.15,2013-03-08 18:27:00,
2013-03-08 10:32:00,44.7,38.9,30.14,West,262,2.0,5.0,80,0.00,,,0.00,494,Wunderground v.1.15,2013-03-08 18:32:00,
2013-03-08 10:37:00,44.4,38.6,30.14,SSE,167,3.0,5.0,80,0.00,,,0.00,526,Wunderground v.1.15,2013-03-08 18:37:00,
2013-03-08 10:42:00,45.6,39.1,30.14,SW,229,2.0,4.0,78,0.00,,,0.00,410,Wunderground v.1.15,2013-03-08 18:42:00,
2013-03-08 10:47:00,45.7,39.2,30.13,SW,218,3.0,5.0,78,0.00,,,0.00,533,Wunderground v.1.15,2013-03-08 18:47:00,
2013-03-08 10:52:00,47.1,40.6,30.13,SW,219,1.0,4.0,78,0.00,,,0.00,527,Wunderground v.1.15,2013-03-08 18:52:00,
2013-03-08 10:57:00,47.4,40.2,30.13,SW,220,3.0,4.0,76,0.00,,,0.00,647,Wunderground v.1.15,2013-03-08 18:57:00,
2013-03-08 11:02:00,47.3,40.1,30.13,West,264,3.0,5.0,76,0.00,,,0.00,661,Wunderground v.1.15,2013-03-08 19:02:00,
2013-03-08 11:07:00,46.9,40.1,30.13,WSW,250,2.0,5.0,77,0.00,,,0.00,371,Wunderground v.1.15,2013-03-08 19:07:00,
2013-03-08 11:12:00,46.6,39.4,30.13,WSW,238,3.0,3.0,76,0.00,,,0.00,570,Wunderground v.1.15,2013-03-08 19:12:00,
2013-03-08 11:17:00,48.5,40.6,30.13,WSW,240,2.0,4.0,74,0.00,,,0.00,383,Wunderground v.1.15,2013-03-08 19:17:00,
2013-03-08 11:22:00,46.7,39.9,30.13,WSW,242,2.0,4.0,77,0.00,,,0.00,265,Wunderground v.1.15,2013-03-08 19:22:00,
2013-03-08 11:27:00,46.8,40.0,30.13,West,261,3.0,4.0,77,0.00,,,0.00,693,Wunderground v.1.15,2013-03-08 19:27:00,
2013-03-08 11:32:00,48.0,40.8,30.13,WSW,248,5.0,5.0,76,0.00,,,0.00,675,Wunderground v.1.15,2013-03-08 19:32:00,
2013-03-08 11:37:00,49.0,40.7,30.13,WSW,253,2.0,5.0,73,0.00,,,0.00,394,Wunderground v.1.15,2013-03-08 19:37:00,
2013-03-08 11:42:00,48.3,40.7,30.13,WSW,253,2.0,4.0,75,0.00,,,0.00,394,Wunderground v.1.15,2013-03-08 19:42:00,
2013-03-08 11:47:00,48.8,40.5,30.13,WSW,242,6.0,6.0,73,0.00,,,0.00,715,Wunderground v.1.15,2013-03-08 19:47:00,
2013-03-08 11:52:00,49.5,41.2,30.13,West,270,2.0,5.0,73,0.00,,,0.00,715,Wunderground v.1.15,2013-03-08 19:52:00,
2013-03-08 11:57:00,49.5,41.2,30.13,SSW,211,1.0,5.0,73,0.00,,,0.00,288,Wunderground v.1.15,2013-03-08 19:57:00,
2013-03-08 12:02:00,49.7,41.0,30.13,SSW,204,0.0,3.0,72,0.00,,,0.00,185,Wunderground v.1.15,2013-03-08 20:02:00,
2013-03-08 12:07:00,49.7,40.7,30.12,SE,139,5.0,5.0,71,0.00,,,0.00,652,Wunderground v.1.15,2013-03-08 20:07:00,
2013-03-08 12:12:00,50.2,40.8,30.12,West,259,2.0,5.0,70,0.00,,,0.00,682,Wunderground v.1.15,2013-03-08 20:12:00,
2013-03-08 12:17:00,50.5,41.1,30.12,South,182,1.0,5.0,70,0.00,,,0.00,656,Wunderground v.1.15,2013-03-08 20:17:00,
2013-03-08 12:22:00,51.1,41.3,30.12,NNW,343,2.0,2.0,69,0.00,,,0.00,248,Wunderground v.1.15,2013-03-08 20:22:00,
2013-03-08 12:27:00,51.0,41.6,30.12,NNW,344,2.0,3.0,70,0.00,,,0.00,585,Wunderground v.1.15,2013-03-08 20:27:00,
2013-03-08 12:32:00,52.6,42.3,30.12,SSE,150,3.0,3.0,68,0.00,,,0.00,599,Wunderground v.1.15,2013-03-08 20:32:00,
2013-03-08 12:37:00,52.2,41.2,30.12,North,350,0.0,5.0,66,0.00,,,0.00,591,Wunderground v.1.15,2013-03-08 20:37:00,
2013-03-08 12:42:00,52.2,41.6,30.11,NE,48,2.0,6.0,67,0.00,,,0.00,608,Wunderground v.1.15,2013-03-08 20:42:00,
2013-03-08 12:47:00,51.6,41.4,30.11,North,355,1.0,6.0,68,0.00,,,0.00,608,Wunderground v.1.15,2013-03-08 20:47:00,
2013-03-08 12:52:00,51.7,41.5,30.11,ENE,73,2.0,5.0,68,0.00,,,0.00,575,Wunderground v.1.15,2013-03-08 20:52:00,
2013-03-08 12:57:00,52.6,41.2,30.11,North,5,6.0,7.0,65,0.00,,,0.00,580,Wunderground v.1.15,2013-03-08 20:57:00,
2013-03-08 13:02:00,52.4,41.0,30.11,North,351,7.0,9.0,65,0.00,,,0.00,587,Wunderground v.1.15,2013-03-08 21:02:00,
2013-03-08 13:07:00,51.8,40.4,30.11,NNW,328,3.0,9.0,65,0.00,,,0.00,587,Wunderground v.1.15,2013-03-08 21:07:00,
2013-03-08 13:12:00,53.0,40.7,30.11,NNE,32,4.0,8.0,63,0.00,,,0.00,564,Wunderground v.1.15,2013-03-08 21:12:00,
2013-03-08 13:17:00,52.0,40.2,30.11,NE,50,4.0,8.0,64,0.00,,,0.00,520,Wunderground v.1.15,2013-03-08 21:17:00,
2013-03-08 13:22:00,52.2,40.0,30.11,NNE,30,4.0,6.0,63,0.00,,,0.00,531,Wunderground v.1.15,2013-03-08 21:22:00,
2013-03-08 13:27:00,53.0,40.7,30.11,NNE,30,4.0,6.0,63,0.00,,,0.00,522,Wunderground v.1.15,2013-03-08 21:27:00,
2013-03-08 13:32:00,52.6,39.5,30.11,NE,36,3.0,7.0,61,0.00,,,0.00,519,Wunderground v.1.15,2013-03-08 21:32:00,
2013-03-08 13:37:00,52.8,40.1,30.12,NE,34,6.0,8.0,62,0.00,,,0.00,513,Wunderground v.1.15,2013-03-08 21:37:00,
2013-03-08 13:42:00,53.0,40.3,30.11,SE,144,3.0,6.0,62,0.00,,,0.00,510,Wunderground v.1.15,2013-03-08 21:42:00,
2013-03-08 13:47:00,53.5,40.8,30.12,NNE,22,3.0,8.0,62,0.00,,,0.00,503,Wunderground v.1.15,2013-03-08 21:47:00,
2013-03-08 13:52:00,52.7,40.0,30.11,North,355,4.0,11.0,62,0.00,,,0.00,497,Wunderground v.1.15,2013-03-08 21:52:00,
2013-03-08 13:57:00,52.1,39.9,30.11,NNE,19,3.0,11.0,63,0.00,,,0.00,490,Wunderground v.1.15,2013-03-08 21:57:00,
2013-03-08 14:02:00,52.4,40.6,30.11,ENE,58,3.0,9.0,64,0.00,,,0.00,480,Wunderground v.1.15,2013-03-08 22:02:00,
2013-03-08 14:07:00,52.3,40.5,30.11,North,11,6.0,11.0,64,0.00,,,0.00,475,Wunderground v.1.15,2013-03-08 22:07:00,
2013-03-08 14:12:00,51.8,40.4,30.12,NNE,18,7.0,11.0,65,0.00,,,0.00,466,Wunderground v.1.15,2013-03-08 22:12:00,
2013-03-08 14:17:00,52.0,41.0,30.12,North,11,3.0,11.0,66,0.00,,,0.00,459,Wunderground v.1.15,2013-03-08 22:17:00,
2013-03-08 14:22:00,52.5,41.1,30.12,NW,309,3.0,6.0,65,0.00,,,0.00,454,Wunderground v.1.15,2013-03-08 22:22:00,
2013-03-08 14:27:00,52.8,41.0,30.12,ESE,105,3.0,8.0,64,0.00,,,0.00,443,Wunderground v.1.15,2013-03-08 22:27:00,
2013-03-08 14:32:00,52.6,40.8,30.12,WNW,292,2.0,8.0,64,0.00,,,0.00,434,Wunderground v.1.15,2013-03-08 22:32:00,
2013-03-08 14:37:00,52.6,40.8,30.12,North,355,5.0,9.0,64,0.00,,,0.00,427,Wunderground v.1.15,2013-03-08 22:37:00,
2013-03-08 14:42:00,52.4,40.6,30.12,NNW,332,3.0,6.0,64,0.00,,,0.00,417,Wunderground v.1.15,2013-03-08 22:42:00,
2013-03-08 14:47:00,52.5,40.7,30.12,NE,34,6.0,10.0,64,0.00,,,0.00,408,Wunderground v.1.15,2013-03-08 22:47:00,
2013-03-08 14:52:00,52.5,40.7,30.12,NE,46,3.0,9.0,64,0.00,,,0.00,403,Wunderground v.1.15,2013-03-08 22:52:00,
2013-03-08 14:57:00,52.8,40.5,30.12,WNW,302,2.0,9.0,63,0.00,,,0.00,392,Wunderground v.1.15,2013-03-08 22:57:00,
2013-03-08 15:02:00,53.0,40.7,30.12,NE,45,6.0,7.0,63,0.00,,,0.00,387,Wunderground v.1.15,2013-03-08 23:02:00,
2013-03-08 15:07:00,52.9,40.2,30.13,NNE,30,7.0,12.0,62,0.00,,,0.00,376,Wunderground v.1.15,2013-03-08 23:07:00,
2013-03-08 15:12:00,52.3,40.1,30.13,ESE,104,2.0,7.0,63,0.00,,,0.00,362,Wunderground v.1.15,2013-03-08 23:12:00,
2013-03-08 15:17:00,52.4,40.2,30.13,ENE,59,5.0,7.0,63,0.00,,,0.00,352,Wunderground v.1.15,2013-03-08 23:17:00,
2013-03-08 15:22:00,52.7,40.5,30.13,North,5,2.0,6.0,63,0.00,,,0.00,343,Wunderground v.1.15,2013-03-08 23:22:00,
2013-03-08 15:27:00,52.6,40.4,30.13,North,355,6.0,7.0,63,0.00,,,0.00,334,Wunderground v.1.15,2013-03-08 23:27:00,
2013-03-08 15:32:00,52.6,40.4,30.13,NNE,21,6.0,8.0,63,0.00,,,0.00,320,Wunderground v.1.15,2013-03-08 23:32:00,
2013-03-08 15:37:00,52.4,40.2,30.13,North,5,4.0,8.0,63,0.00,,,0.00,309,Wunderground v.1.15,2013-03-08 23:37:00,
2013-03-08 15:42:00,52.6,39.5,30.13,North,5,2.0,6.0,61,0.00,,,0.00,295,Wunderground v.1.15,2013-03-08 23:42:00,
2013-03-08 15:47:00,52.3,38.8,30.13,North,360,5.0,10.0,60,0.00,,,0.00,283,Wunderground v.1.15,2013-03-08 23:47:00,
2013-03-08 15:52:00,52.5,39.0,30.13,NNE,24,9.0,9.0,60,0.00,,,0.00,274,Wunderground v.1.15,2013-03-08 23:52:00,
2013-03-08 15:57:00,52.3,38.0,30.13,North,9,6.0,9.0,58,0.00,,,0.00,264,Wunderground v.1.15,2013-03-08 23:57:00,
2013-03-08 16:02:00,52.3,38.8,30.13,ESE,121,0.0,4.0,60,0.00,,,0.00,251,Wunderground v.1.15,2013-03-09 00:02:00,
2013-03-08 16:07:00,52.5,39.4,30.13,NNE,30,0.0,7.0,61,0.00,,,0.00,241,Wunderground v.1.15,2013-03-09 00:07:00,
2013-03-08 16:12:00,52.2,40.0,30.13,NNE,29,4.0,6.0,63,0.00,,,0.00,227,Wunderground v.1.15,2013-03-09 00:12:00,
2013-03-08 16:17:00,51.9,40.1,30.13,North,360,1.0,8.0,64,0.00,,,0.00,213,Wunderground v.1.15,2013-03-09 00:17:00,
2013-03-08 16:22:00,51.9,40.1,30.13,NNE,24,6.0,7.0,64,0.00,,,0.00,199,Wunderground v.1.15,2013-03-09 00:22:00,
2013-03-08 16:27:00,51.7,40.3,30.14,WNW,289,4.0,7.0,65,0.00,,,0.00,185,Wunderground v.1.15,2013-03-09 00:27:00,
2013-03-08 16:32:00,51.6,39.8,30.14,ESE,108,2.0,4.0,64,0.00,,,0.00,169,Wunderground v.1.15,2013-03-09 00:32:00,
2013-03-08 16:37:00,51.4,40.0,30.14,NE,49,0.0,8.0,65,0.00,,,0.00,153,Wunderground v.1.15,2013-03-09 00:37:00,
2013-03-08 16:42:00,51.3,39.9,30.14,ESE,111,1.0,5.0,65,0.00,,,0.00,139,Wunderground v.1.15,2013-03-09 00:42:00,
2013-03-08 16:47:00,51.0,40.4,30.14,NE,41,2.0,8.0,67,0.00,,,0.00,127,Wunderground v.1.15,2013-03-09 00:47:00,
2013-03-08 16:52:00,50.7,40.5,30.14,NE,48,3.0,7.0,68,0.00,,,0.00,107,Wunderground v.1.15,2013-03-09 00:52:00,
2013-03-08 16:57:00,50.3,40.1,30.14,ESE,111,3.0,7.0,68,0.00,,,0.00,93,Wunderground v.1.15,2013-03-09 00:57:00,
2013-03-08 17:02:00,50.0,40.2,30.14,NE,42,1.0,5.0,69,0.00,,,0.00,81,Wunderground v.1.15,2013-03-09 01:02:00,
2013-03-08 17:07:00,50.0,39.5,30.15,NE,51,3.0,5.0,67,0.00,,,0.00,69,Wunderground v.1.15,2013-03-09 01:07:00,
2013-03-08 17:12:00,49.7,39.6,30.15,ENE,66,1.0,2.0,68,0.00,,,0.00,58,Wunderground v.1.15,2013-03-09 01:12:00,
2013-03-08 17:17:00,49.5,39.4,30.15,ESE,112,3.0,6.0,68,0.00,,,0.00,47,Wunderground v.1.15,2013-03-09 01:17:00,
2013-03-08 17:22:00,49.4,40.0,30.15,ESE,118,3.0,5.0,70,0.00,,,0.00,39,Wunderground v.1.15,2013-03-09 01:22:00,
2013-03-08 17:27:00,49.1,40.1,30.15,ESE,112,3.0,5.0,71,0.00,,,0.00,30,Wunderground v.1.15,2013-03-09 01:27:00,
2013-03-08 17:32:00,48.7,40.1,30.15,NE,42,1.0,3.0,72,0.00,,,0.00,19,Wunderground v.1.15,2013-03-09 01:32:00,
2013-03-08 17:37:00,48.3,40.0,30.16,NE,43,1.0,4.0,73,0.00,,,0.00,18,Wunderground v.1.15,2013-03-09 01:37:00,
2013-03-08 17:42:00,48.0,40.1,30.16,NE,42,4.0,4.0,74,0.00,,,0.00,16,Wunderground v.1.15,2013-03-09 01:42:00,
2013-03-08 17:47:00,47.6,39.7,30.16,NE,40,1.0,7.0,74,0.00,,,0.00,12,Wunderground v.1.15,2013-03-09 01:47:00,
2013-03-08 17:52:00,47.3,39.4,30.16,East,99,1.0,5.0,74,0.00,,,0.00,11,Wunderground v.1.15,2013-03-09 01:52:00,
2013-03-08 17:57:00,47.1,39.6,30.16,ENE,78,0.0,5.0,75,0.00,,,0.00,7,Wunderground v.1.15,2013-03-09 01:57:00,
2013-03-08 18:02:00,46.9,39.4,30.17,NE,55,1.0,1.0,75,0.00,,,0.00,5,Wunderground v.1.15,2013-03-09 02:02:00,
2013-03-08 18:07:00,46.7,39.2,30.17,East,86,2.0,4.0,75,0.00,,,0.00,0,Wunderground v.1.15,2013-03-09 02:07:00,
2013-03-08 18:12:00,46.6,39.1,30.17,NE,45,2.0,3.0,75,0.00,,,0.00,0,Wunderground v.1.15,2013-03-09 02:12:00,
2013-03-08 18:17:00,46.5,38.7,30.17,NNW,335,1.0,5.0,74,0.00,,,0.00,0,Wunderground v.1.15,2013-03-09 02:17:00,
2013-03-08 18:22:00,46.4,38.6,30.17,NE,47,3.0,5.0,74,0.00,,,0.00,0,Wunderground v.1.15,2013-03-09 02:22:00,
2013-03-08 18:27:00,46.2,38.4,30.17,NE,53,0.0,5.0,74,0.00,,,0.00,0,Wunderground v.1.15,2013-03-09 02:27:00,
2013-03-08 18:32:00,46.0,38.2,30.17,North,5,3.0,5.0,74,0.00,,,0.00,0,Wunderground v.1.15,2013-03-09 02:32:00,
2013-03-08 18:37:00,46.0,38.2,30.18,ENE,57,2.0,5.0,74,0.00,,,0.00,0,Wunderground v.1.15,2013-03-09 02:37:00,
2013-03-08 18:42:00,45.8,38.3,30.18,East,83,1.0,2.0,75,0.00,,,0.00,0,Wunderground v.1.15,2013-03-09 02:42:00,
2013-03-08 18:47:00,45.7,38.6,30.18,ENE,61,1.0,4.0,76,0.00,,,0.00,0,Wunderground v.1.15,2013-03-09 02:47:00,
2013-03-08 18:52:00,45.5,38.4,30.18,NE,49,3.0,5.0,76,0.00,,,0.00,0,Wunderground v.1.15,2013-03-09 02:52:00,
2013-03-08 18:57:00,45.4,38.6,30.18,ENE,67,0.0,5.0,77,0.00,,,0.00,0,Wunderground v.1.15,2013-03-09 02:57:00,
2013-03-08 19:02:00,45.3,38.8,30.19,NE,56,2.0,3.0,78,0.00,,,0.00,0,Wunderground v.1.15,2013-03-09 03:02:00,
2013-03-08 19:07:00,45.2,38.7,30.19,ENE,74,2.0,3.0,78,0.00,,,0.00,0,Wunderground v.1.15,2013-03-09 03:07:00,
2013-03-08 19:12:00,45.0,38.6,30.19,ENE,71,2.0,2.0,78,0.00,,,0.00,0,Wunderground v.1.15,2013-03-09 03:12:00,
2013-03-08 19:17:00,45.0,38.6,30.19,NNE,26,1.0,4.0,78,0.00,,,0.00,0,Wunderground v.1.15,2013-03-09 03:17:00,
2013-03-08 19:22:00,44.9,38.5,30.19,ESE,104,1.0,4.0,78,0.00,,,0.00,0,Wunderground v.1.15,2013-03-09 03:22:00,
2013-03-08 19:27:00,44.7,37.9,30.20,ENE,58,2.0,4.0,77,0.00,,,0.00,0,Wunderground v.1.15,2013-03-09 03:27:00,
2013-03-08 19:32:00,44.7,37.9,30.20,NE,52,0.0,1.0,77,0.00,,,0.00,0,Wunderground v.1.15,2013-03-09 03:32:00,
2013-03-08 19:37:00,44.5,37.7,30.20,ENE,58,1.0,2.0,77,0.00,,,0.00,0,Wunderground v.1.15,2013-03-09 03:37:00,
2013-03-08 19:42:00,44.5,38.1,30.20,ENE,78,2.0,3.0,78,0.00,,,0.00,0,Wunderground v.1.15,2013-03-09 03:42:00,
2013-03-08 19:47:00,44.5,37.7,30.20,ENE,78,1.0,3.0,77,0.00,,,0.00,0,Wunderground v.1.15,2013-03-09 03:47:00,
2013-03-08 19:52:00,44.4,37.6,30.20,East,87,0.0,5.0,77,0.00,,,0.00,0,Wunderground v.1.15,2013-03-09 03:52:00,
2013-03-08 19:57:00,44.4,37.6,30.20,East,87,0.0,5.0,77,0.00,,,0.00,0,Wunderground v.1.15,2013-03-09 03:57:00,
2013-03-08 20:02:00,44.2,37.4,30.21,East,87,0.0,0.0,77,0.00,,,0.00,0,Wunderground v.1.15,2013-03-09 04:02:00,
2013-03-08 20:07:00,44.0,37.6,30.21,East,87,0.0,2.0,78,0.00,,,0.00,0,Wunderground v.1.15,2013-03-09 04:07:00,
2013-03-08 20:11:00,43.8,37.4,30.21,East,87,0.0,0.0,78,0.00,,,0.00,0,Wunderground v.1.15,2013-03-09 04:11:00,
2013-03-08 20:16:00,43.7,37.6,30.21,East,87,0.0,1.0,79,0.00,,,0.00,0,Wunderground v.1.15,2013-03-09 04:16:00,
2013-03-08 20:21:00,43.7,37.6,30.22,East,87,0.0,1.0,79,0.00,,,0.00,0,Wunderground v.1.15,2013-03-09 04:21:00,
2013-03-08 20:26:00,43.7,37.6,30.22,East,87,0.0,2.0,79,0.00,,,0.00,0,Wunderground v.1.15,2013-03-09 04:26:00,
2013-03-08 20:31:00,43.6,37.5,30.22,East,87,0.0,0.0,79,0.00,,,0.00,0,Wunderground v.1.15,2013-03-09 04:31:00,
2013-03-08 20:36:00,43.1,37.0,30.22,East,87,0.0,0.0,79,0.00,,,0.00,0,Wunderground v.1.15,2013-03-09 04:36:00,
2013-03-08 20:41:00,42.8,37.1,30.22,East,87,0.0,0.0,80,0.00,,,0.00,0,Wunderground v.1.15,2013-03-09 04:41:00,
2013-03-08 20:46:00,42.7,37.3,30.22,East,87,0.0,1.0,81,0.00,,,0.00,0,Wunderground v.1.15,2013-03-09 04:46:00,
2013-03-08 20:51:00,42.3,36.9,30.22,East,87,0.0,1.0,81,0.00,,,0.00,0,Wunderground v.1.15,2013-03-09 04:51:00,
2013-03-08 20:56:00,42.2,37.1,30.22,East,87,0.0,1.0,82,0.00,,,0.00,0,Wunderground v.1.15,2013-03-09 04:56:00,
2013-03-08 21:00:00,42.3,36.9,30.22,East,87,0.0,1.0,81,0.00,,,0.00,0,Wunderground v.1.15,2013-03-09 05:00:00,
2013-03-08 21:05:00,42.2,36.8,30.22,East,87,0.0,0.0,81,0.00,,,0.00,0,Wunderground v.1.15,2013-03-09 05:05:00,
2013-03-08 21:10:00,42.0,36.9,30.23,East,87,1.0,2.0,82,0.00,,,0.00,0,Wunderground v.1.15,2013-03-09 05:10:00,
2013-03-08 21:15:00,42.1,36.7,30.23,East,87,1.0,2.0,81,0.00,,,0.00,0,Wunderground v.1.15,2013-03-09 05:15:00,
2013-03-08 21:20:00,42.0,36.6,30.23,East,87,0.0,2.0,81,0.00,,,0.00,0,Wunderground v.1.15,2013-03-09 05:20:00,
2013-03-08 21:25:00,42.0,36.9,30.23,East,87,0.0,1.0,82,0.00,,,0.00,0,Wunderground v.1.15,2013-03-09 05:25:00,
2013-03-08 21:30:00,42.0,37.2,30.24,East,87,0.0,1.0,83,0.00,,,0.00,0,Wunderground v.1.15,2013-03-09 05:30:00,
2013-03-08 21:35:00,41.9,37.1,30.24,East,87,1.0,2.0,83,0.00,,,0.00,0,Wunderground v.1.15,2013-03-09 05:35:00,
2013-03-08 21:40:00,41.9,37.1,30.24,East,87,0.0,2.0,83,0.00,,,0.00,0,Wunderground v.1.15,2013-03-09 05:40:00,
2013-03-08 21:45:00,41.8,37.0,30.24,East,87,0.0,2.0,83,0.00,,,0.00,0,Wunderground v.1.15,2013-03-09 05:45:00,
2013-03-08 21:50:00,41.6,36.8,30.24,East,87,1.0,2.0,83,0.00,,,0.00,0,Wunderground v.1.15,2013-03-09 05:50:00,
2013-03-08 21:55:00,41.7,36.9,30.24,East,87,0.0,2.0,83,0.00,,,0.00,0,Wunderground v.1.15,2013-03-09 05:55:00,
2013-03-08 22:00:00,41.5,36.7,30.24,East,87,0.0,2.0,83,0.00,,,0.00,0,Wunderground v.1.15,2013-03-09 06:00:00,
2013-03-08 22:05:00,41.3,36.8,30.24,East,87,0.0,1.0,84,0.00,,,0.00,0,Wunderground v.1.15,2013-03-09 06:05:00,
2013-03-08 22:10:00,41.3,36.8,30.24,East,87,0.0,2.0,84,0.00,,,0.00,0,Wunderground v.1.15,2013-03-09 06:10:00,
2013-03-08 22:15:00,41.5,37.0,30.24,East,87,0.0,2.0,84,0.00,,,0.00,0,Wunderground v.1.15,2013-03-09 06:15:00,
2013-03-08 22:20:00,41.3,36.8,30.24,East,87,0.0,2.0,84,0.00,,,0.00,0,Wunderground v.1.15,2013-03-09 06:20:00,
2013-03-08 22:25:00,41.2,37.0,30.24,East,87,1.0,2.0,85,0.00,,,0.00,0,Wunderground v.1.15,2013-03-09 06:25:00,
2013-03-08 22:30:00,41.3,37.1,30.25,East,87,0.0,2.0,85,0.00,,,0.00,0,Wunderground v.1.15,2013-03-09 06:30:00,
2013-03-08 22:35:00,41.3,37.1,30.25,East,87,0.0,1.0,85,0.00,,,0.00,0,Wunderground v.1.15,2013-03-09 06:35:00,
2013-03-08 22:40:00,41.2,36.7,30.25,East,87,0.0,1.0,84,0.00,,,0.00,0,Wunderground v.1.15,2013-03-09 06:40:00,
2013-03-08 22:45:00,41.2,37.0,30.25,East,87,1.0,1.0,85,0.00,,,0.00,0,Wunderground v.1.15,2013-03-09 06:45:00,
2013-03-08 22:50:00,41.1,36.9,30.25,East,87,0.0,1.0,85,0.00,,,0.00,0,Wunderground v.1.15,2013-03-09 06:50:00,
2013-03-08 22:55:00,40.5,36.3,30.25,East,87,0.0,1.0,85,0.00,,,0.00,0,Wunderground v.1.15,2013-03-09 06:55:00,
2013-03-08 23:00:00,40.6,37.0,30.25,East,87,0.0,1.0,87,0.00,,,0.00,0,Wunderground v.1.15,2013-03-09 07:00:00,
2013-03-08 23:05:00,39.9,36.3,30.25,East,87,0.0,0.0,87,0.00,,,0.00,0,Wunderground v.1.15,2013-03-09 07:05:00,
2013-03-08 23:10:00,40.0,36.7,30.25,East,87,0.0,0.0,88,0.00,,,0.00,0,Wunderground v.1.15,2013-03-09 07:10:00,
2013-03-08 23:15:00,39.8,36.5,30.25,East,87,1.0,2.0,88,0.00,,,0.00,0,Wunderground v.1.15,2013-03-09 07:15:00,
2013-03-08 23:20:00,39.5,36.2,30.25,East,87,0.0,2.0,88,0.00,,,0.00,0,Wunderground v.1.15,2013-03-09 07:20:00,
2013-03-08 23:25:00,39.5,36.5,30.25,East,87,0.0,0.0,89,0.00,,,0.00,0,Wunderground v.1.15,2013-03-09 07:25:00,
2013-03-08 23:30:00,39.5,36.5,30.26,East,87,0.0,0.0,89,0.00,,,0.00,0,Wunderground v.1.15,2013-03-09 07:30:00,
2013-03-08 23:35:00,39.4,36.4,30.26,East,87,0.0,0.0,89,0.00,,,0.00,0,Wunderground v.1.15,2013-03-09 07:35:00,
2013-03-08 23:40:00,39.5,36.8,30.26,East,87,0.0,1.0,90,0.00,,,0.00,0,Wunderground v.1.15,2013-03-09 07:40:00,
2013-03-08 23:44:00,39.9,36.9,30.26,East,87,0.0,2.0,89,0.00,,,0.00,0,Wunderground v.1.15,2013-03-09 07:44:00,
2013-03-08 23:49:00,40.0,37.0,30.26,East,87,0.0,2.0,89,0.00,,,0.00,0,Wunderground v.1.15,2013-03-09 07:49:00,
2013-03-08 23:54:00,39.7,36.7,30.26,East,87,1.0,1.0,89,0.00,,,0.00,0,Wunderground v.1.15,2013-03-09 07:54:00,
2013-03-08 23:59:00,39.8,37.1,30.27,East,87,1.0,2.0,90,0.00,,,0.00,0,Wunderground v.1.15,2013-03-09 07:59:00,